createdAt,value
2023-01-13T00:00:00.467Z,8.59
2023-01-13T00:05:01.594Z,8.59
2023-01-13T00:10:00.462Z,8.59
2023-01-13T00:15:00.501Z,8.59
2023-01-13T00:20:00.511Z,8.59
2023-01-13T00:25:00.519Z,8.59
2023-01-13T00:30:00.487Z,8.38
2023-01-13T00:35:00.377Z,8.38
2023-01-13T00:40:01.273Z,8.43
2023-01-13T00:45:04.577Z,8.43
2023-01-13T00:50:00.584Z,8.43
2023-01-13T00:55:00.425Z,8.43
2023-01-13T01:00:00.571Z,8.43
2023-01-13T01:05:00.362Z,8.43
2023-01-13T01:10:00.571Z,8.43
2023-01-13T01:15:00.534Z,8.43
2023-01-13T01:20:00.467Z,8.43
2023-01-13T01:25:00.449Z,8.43
2023-01-13T01:30:00.541Z,8.5
2023-01-13T01:35:00.353Z,8.5
2023-01-13T01:40:00.560Z,8.5
2023-01-13T01:45:00.398Z,8.51
2023-01-13T01:50:00.613Z,8.51
2023-01-13T01:55:00.631Z,8.51
2023-01-13T02:00:00.555Z,8.51
2023-01-13T02:05:00.365Z,8.51
2023-01-13T02:10:00.596Z,8.51
2023-01-13T02:15:00.377Z,8.51
2023-01-13T02:20:00.424Z,8.51
2023-01-13T02:25:00.846Z,8.51
2023-01-13T02:30:00.390Z,8.51
2023-01-13T02:35:00.574Z,8.51
2023-01-13T02:40:00.965Z,8.51
2023-01-13T02:45:04.159Z,8.51
2023-01-13T02:50:00.356Z,8.51
2023-01-13T02:55:01.430Z,8.51
2023-01-13T03:00:00.468Z,8.51
2023-01-13T03:05:00.880Z,8.51
2023-01-13T03:10:00.505Z,8.52
2023-01-13T03:15:00.447Z,8.52
2023-01-13T03:20:00.372Z,8.48
2023-01-13T03:25:01.000Z,8.48
2023-01-13T03:30:00.384Z,8.48
2023-01-13T03:35:01.525Z,8.48
2023-01-13T03:40:00.617Z,8.48
2023-01-13T03:45:04.280Z,8.48
2023-01-13T03:50:00.483Z,8.64
2023-01-13T03:55:00.588Z,8.64
2023-01-13T04:00:00.324Z,8.64
2023-01-13T04:05:00.578Z,8.64
2023-01-13T04:10:01.872Z,8.61
2023-01-13T04:15:00.548Z,8.61
2023-01-13T04:20:00.682Z,8.61
2023-01-13T04:25:00.659Z,8.61
2023-01-13T04:30:00.360Z,8.61
2023-01-13T04:35:00.506Z,8.61
2023-01-13T04:40:00.957Z,8.61
2023-01-13T04:45:00.344Z,8.61
2023-01-13T04:50:00.451Z,8.61
2023-01-13T04:55:00.417Z,8.61
2023-01-13T05:00:00.453Z,8.61
2023-01-13T05:05:00.619Z,8.61
2023-01-13T05:10:00.579Z,8.59
2023-01-13T05:15:00.320Z,8.59
2023-01-13T05:20:00.513Z,8.59
2023-01-13T05:25:00.477Z,8.59
2023-01-13T05:30:00.528Z,8.58
2023-01-13T05:35:00.358Z,8.58
2023-01-13T05:40:00.650Z,8.58
2023-01-13T05:45:04.784Z,8.58
2023-01-13T05:50:00.627Z,8.58
2023-01-13T05:55:00.910Z,8.58
2023-01-13T06:00:00.569Z,8.58
2023-01-13T06:05:00.684Z,8.68
2023-01-13T06:10:00.454Z,8.68
2023-01-13T06:15:00.525Z,8.68
2023-01-13T06:20:00.366Z,8.68
2023-01-13T06:25:00.582Z,8.68
2023-01-13T06:30:00.360Z,8.68
2023-01-13T06:35:00.397Z,8.68
2023-01-13T06:40:00.458Z,8.68
2023-01-13T06:45:04.211Z,8.68
2023-01-13T06:50:00.325Z,8.41
2023-01-13T06:55:01.662Z,8.41
2023-01-13T07:00:00.349Z,8.41
2023-01-13T07:05:00.572Z,8.44
2023-01-13T07:10:01.605Z,8.44
2023-01-13T07:15:00.384Z,8.44
2023-01-13T07:20:00.363Z,8.44
2023-01-13T07:25:00.550Z,8.44
2023-01-13T07:30:00.352Z,8.44
2023-01-13T07:35:00.493Z,8.44
2023-01-13T07:40:00.413Z,8.5
2023-01-13T07:45:04.966Z,8.5
2023-01-13T07:50:00.361Z,8.5
2023-01-13T07:55:00.605Z,8.5
2023-01-13T08:00:00.364Z,8.69
2023-01-13T08:05:00.529Z,8.69
2023-01-13T08:10:01.563Z,8.69
2023-01-13T08:15:00.367Z,8.69
2023-01-13T08:20:00.364Z,8.69
2023-01-13T08:25:00.616Z,8.69
2023-01-13T08:30:00.346Z,9.02
2023-01-13T08:35:00.486Z,8.99
2023-01-13T08:40:00.480Z,8.99
2023-01-13T08:45:05.607Z,8.99
2023-01-13T08:50:00.348Z,8.99
2023-01-13T08:55:00.752Z,9.14
2023-01-13T09:00:00.379Z,9.14
2023-01-13T09:05:00.800Z,9.14
2023-01-13T09:10:00.527Z,9.26
2023-01-13T09:15:00.416Z,9.26
2023-01-13T09:20:00.379Z,9.26
2023-01-13T09:25:00.566Z,9.37
2023-01-13T09:30:00.429Z,9.37
2023-01-13T09:35:00.513Z,9.45
2023-01-13T09:40:00.462Z,9.45
2023-01-13T09:45:04.901Z,9.45
2023-01-13T09:50:00.325Z,9.82
2023-01-13T09:55:00.787Z,9.96
2023-01-13T10:00:00.459Z,9.96
2023-01-13T10:05:00.589Z,9.96
2023-01-13T10:10:00.420Z,10.36
2023-01-13T10:15:00.599Z,10.33
2023-01-13T10:20:00.376Z,10.33
2023-01-13T10:25:00.754Z,10.33
2023-01-13T10:30:00.332Z,10.44
2023-01-13T10:35:00.373Z,10.44
2023-01-13T10:40:00.524Z,10.51
2023-01-13T10:45:00.337Z,10.51
2023-01-13T10:50:00.500Z,10.95
2023-01-13T10:55:00.801Z,10.95
2023-01-13T11:00:00.358Z,10.95
2023-01-13T11:05:00.690Z,10.95
2023-01-13T11:10:01.357Z,10.95
2023-01-13T11:15:00.336Z,10.91
2023-01-13T11:20:00.508Z,10.91
2023-01-13T11:25:00.788Z,10.91
2023-01-13T11:30:00.435Z,10.91
2023-01-13T11:35:00.354Z,11.27
2023-01-13T11:40:00.719Z,11.2
2023-01-13T11:45:00.370Z,11.1
2023-01-13T11:50:00.509Z,11.1
2023-01-13T11:55:05.589Z,11.1
2023-01-13T12:00:00.382Z,11.1
2023-01-13T12:05:00.574Z,11.1
2023-01-13T12:10:03.077Z,11.1
2023-01-13T12:15:00.373Z,10.6
2023-01-13T12:20:01.628Z,10.51
2023-01-13T12:25:00.644Z,10.51
2023-01-13T12:30:00.654Z,10.39
2023-01-13T12:35:00.369Z,10.39
2023-01-13T12:40:00.527Z,10.08
2023-01-13T12:45:00.358Z,10.08
2023-01-13T12:50:00.586Z,9.55
2023-01-13T12:55:01.154Z,9.55
2023-01-13T13:00:00.427Z,9.55
2023-01-13T13:05:00.547Z,9.4
2023-01-13T13:10:00.521Z,9.3
2023-01-13T13:15:03.073Z,9.3
2023-01-13T13:20:00.456Z,9.2
2023-01-13T13:25:00.541Z,9.17
2023-01-13T13:30:00.373Z,9.09
2023-01-13T13:35:00.430Z,9.07
2023-01-13T13:40:00.458Z,9.13
2023-01-13T13:45:00.559Z,9.13
2023-01-13T13:50:00.345Z,9.13
2023-01-13T13:55:00.767Z,8.99
2023-01-13T14:00:00.363Z,8.99
2023-01-13T14:05:00.556Z,8.99
2023-01-13T14:10:01.226Z,8.99
2023-01-13T14:15:00.298Z,8.99
2023-01-13T14:20:00.494Z,9.07
2023-01-13T14:25:00.615Z,9.07
2023-01-13T14:30:00.777Z,9.07
2023-01-13T14:35:00.269Z,9.07
2023-01-13T14:40:00.494Z,9.07
2023-01-13T14:45:00.274Z,9.07
2023-01-13T14:50:00.475Z,9.07
2023-01-13T14:55:00.453Z,8.93
2023-01-13T15:00:00.554Z,8.93
2023-01-13T15:05:00.279Z,8.93
2023-01-13T15:10:00.520Z,8.93
2023-01-13T15:15:00.252Z,8.93
2023-01-13T15:20:00.300Z,8.71
2023-01-13T15:25:00.647Z,8.71
2023-01-13T15:30:00.273Z,8.71
2023-01-13T15:35:00.354Z,8.41
2023-01-13T15:40:00.413Z,8.41
2023-01-13T15:45:00.549Z,8.43
2023-01-13T15:50:00.252Z,8.41
2023-01-13T15:55:00.529Z,8.41
2023-01-13T16:00:00.346Z,8.31
2023-01-13T16:05:00.543Z,8.31
2023-01-13T16:10:00.504Z,8.31
2023-01-13T16:15:00.583Z,8.27
2023-01-13T16:20:00.288Z,8.27
2023-01-13T16:25:01.015Z,8.21
2023-01-13T16:30:00.327Z,8.03
2023-01-13T16:35:00.410Z,8.03
2023-01-13T16:40:00.377Z,8.03
2023-01-13T16:45:00.424Z,8.03
2023-01-13T16:50:00.419Z,7.53
2023-01-13T16:55:00.660Z,7.53
2023-01-13T17:00:00.427Z,7.62
2023-01-13T17:05:00.538Z,7.62
2023-01-13T17:10:00.761Z,7.47
2023-01-13T17:15:00.346Z,7.48
2023-01-13T17:20:00.464Z,7.48
2023-01-13T17:25:00.797Z,7.48
2023-01-13T17:30:00.327Z,7.48
2023-01-13T17:35:00.377Z,7.48
2023-01-13T17:40:00.515Z,7.48
2023-01-13T17:45:00.591Z,7.48
2023-01-13T17:50:00.339Z,7.48
2023-01-13T17:55:00.764Z,7.48
2023-01-13T18:00:00.423Z,7
2023-01-13T18:05:01.686Z,7.05
2023-01-13T18:10:00.628Z,7.05
2023-01-13T18:15:00.342Z,6.9
2023-01-13T18:20:00.342Z,6.9
2023-01-13T18:25:00.713Z,6.9
2023-01-13T18:30:00.347Z,6.9
2023-01-13T18:35:05.797Z,6.9
2023-01-13T18:40:00.523Z,6.9
2023-01-13T18:45:00.475Z,6.9
2023-01-13T18:50:00.354Z,6.9
2023-01-13T18:55:00.754Z,6.9
2023-01-13T19:00:00.345Z,7.05
2023-01-13T19:05:00.707Z,7.05
2023-01-13T19:10:00.475Z,7.05
2023-01-13T19:15:00.502Z,7.07
2023-01-13T19:20:00.353Z,7.07
2023-01-13T19:25:00.767Z,7.07
2023-01-13T19:30:00.786Z,7.07
2023-01-13T19:35:00.406Z,7.07
2023-01-13T19:40:03.621Z,7.05
2023-01-13T19:45:00.344Z,7.05
2023-01-13T19:50:04.062Z,7.05
2023-01-13T19:55:00.908Z,7.05
2023-01-13T20:00:00.496Z,7.02
2023-01-13T20:05:00.379Z,6.89
2023-01-13T20:10:00.643Z,6.89
2023-01-13T20:15:00.514Z,6.89
2023-01-13T20:20:00.390Z,6.89
2023-01-13T20:25:01.042Z,6.89
2023-01-13T20:30:00.614Z,6.89
2023-01-13T20:35:00.482Z,6.89
2023-01-13T20:40:00.504Z,6.89
2023-01-13T20:45:00.576Z,6.89
2023-01-13T20:50:00.338Z,7.16
2023-01-13T20:55:00.663Z,7.16
2023-01-13T21:00:00.366Z,7.16
2023-01-13T21:05:00.727Z,7.16
2023-01-13T21:10:00.583Z,7.16
2023-01-13T21:15:00.367Z,7.16
2023-01-13T21:20:00.392Z,7.3
2023-01-13T21:25:00.669Z,7.3
2023-01-13T21:30:00.676Z,7.3
2023-01-13T21:35:00.446Z,7.3
2023-01-13T21:40:00.534Z,7.3
2023-01-13T21:45:00.499Z,7.3
2023-01-13T21:50:00.343Z,7.23
2023-01-13T21:55:00.572Z,7.23
2023-01-13T22:00:00.393Z,7.23
2023-01-13T22:05:00.477Z,7.23
2023-01-13T22:10:00.497Z,7.13
2023-01-13T22:15:00.504Z,7.13
2023-01-13T22:20:00.354Z,7.13
2023-01-13T22:25:01.199Z,6.99
2023-01-13T22:30:00.366Z,6.99
2023-01-13T22:35:00.497Z,6.99
2023-01-13T22:40:00.544Z,6.9
2023-01-13T22:45:00.496Z,6.95
2023-01-13T22:50:00.362Z,6.95
2023-01-13T22:55:00.706Z,6.95
2023-01-13T23:00:00.410Z,6.95
2023-01-13T23:05:00.686Z,6.95
2023-01-13T23:10:00.616Z,6.95
2023-01-13T23:15:00.781Z,6.95
2023-01-13T23:20:00.328Z,6.95
2023-01-13T23:25:00.751Z,6.4
2023-01-13T23:30:00.331Z,6.4
2023-01-13T23:35:00.391Z,6.4
2023-01-13T23:40:00.644Z,6.21
2023-01-13T23:45:00.316Z,6.21
2023-01-13T23:50:00.573Z,6.21
2023-01-13T23:55:00.717Z,6.21
